sensor_id;sensor_type;location;lat;lon;timestamp;pressure;altitude;pressure_sealevel;temperature
6498;BMP280;3282;48.358;10.958;2022-07-03T00:02:19;96546.50;;;19.00
6498;BMP280;3282;48.358;10.958;2022-07-03T00:04:45;96554.31;;;18.94
6498;BMP280;3282;48.358;10.958;2022-07-03T00:07:12;96552.44;;;18.91
6498;BMP280;3282;48.358;10.958;2022-07-03T00:09:39;96547.47;;;18.86
6498;BMP280;3282;48.358;10.958;2022-07-03T00:12:05;96546.34;;;18.83
6498;BMP280;3282;48.358;10.958;2022-07-03T00:14:33;96540.69;;;18.74
6498;BMP280;3282;48.358;10.958;2022-07-03T00:16:59;96551.09;;;18.75
6498;BMP280;3282;48.358;10.958;2022-07-03T00:19:26;96549.97;;;18.73
6498;BMP280;3282;48.358;10.958;2022-07-03T00:21:56;96550.44;;;18.67
6498;BMP280;3282;48.358;10.958;2022-07-03T00:27:01;96534.41;;;18.49
6498;BMP280;3282;48.358;10.958;2022-07-03T00:29:36;96545.19;;;18.53
6498;BMP280;3282;48.358;10.958;2022-07-03T00:32:06;96544.09;;;18.47
6498;BMP280;3282;48.358;10.958;2022-07-03T00:34:33;96544.91;;;18.43
6498;BMP280;3282;48.358;10.958;2022-07-03T00:37:01;96543.38;;;18.42
6498;BMP280;3282;48.358;10.958;2022-07-03T00:39:40;96520.34;;;18.27
6498;BMP280;3282;48.358;10.958;2022-07-03T00:42:09;96496.25;;;18.01
6498;BMP280;3282;48.358;10.958;2022-07-03T00:44:56;96546.63;;;18.26
6498;BMP280;3282;48.358;10.958;2022-07-03T00:47:25;96535.16;;;18.18
6498;BMP280;3282;48.358;10.958;2022-07-03T00:49:54;96541.00;;;18.13
6498;BMP280;3282;48.358;10.958;2022-07-03T00:52:22;96540.63;;;18.11
6498;BMP280;3282;48.358;10.958;2022-07-03T00:54:54;96542.22;;;18.09
6498;BMP280;3282;48.358;10.958;2022-07-03T00:57:23;96544.53;;;18.07
6498;BMP280;3282;48.358;10.958;2022-07-03T00:59:50;96544.56;;;18.03
6498;BMP280;3282;48.358;10.958;2022-07-03T01:02:30;96543.53;;;17.93
6498;BMP280;3282;48.358;10.958;2022-07-03T01:08:04;96550.88;;;17.92
6498;BMP280;3282;48.358;10.958;2022-07-03T01:10:47;96552.09;;;17.88
6498;BMP280;3282;48.358;10.958;2022-07-03T01:13:27;96552.47;;;17.86
6498;BMP280;3282;48.358;10.958;2022-07-03T01:15:58;96545.50;;;17.85
6498;BMP280;3282;48.358;10.958;2022-07-03T01:18:35;96545.56;;;17.82
6498;BMP280;3282;48.358;10.958;2022-07-03T01:21:13;96544.03;;;17.81
6498;BMP280;3282;48.358;10.958;2022-07-03T01:23:57;96529.50;;;17.63
6498;BMP280;3282;48.358;10.958;2022-07-03T01:26:30;96537.13;;;17.72
6498;BMP280;3282;48.358;10.958;2022-07-03T01:29:03;96539.50;;;17.66
6498;BMP280;3282;48.358;10.958;2022-07-03T01:31:35;96539.59;;;17.59
6498;BMP280;3282;48.358;10.958;2022-07-03T01:34:09;96536.53;;;17.50
6498;BMP280;3282;48.358;10.958;2022-07-03T01:36:40;96527.34;;;17.44
6498;BMP280;3282;48.358;10.958;2022-07-03T01:39:09;96533.59;;;17.37
6498;BMP280;3282;48.358;10.958;2022-07-03T01:41:40;96533.59;;;17.37
6498;BMP280;3282;48.358;10.958;2022-07-03T01:44:06;96528.94;;;17.34
6498;BMP280;3282;48.358;10.958;2022-07-03T01:46:36;96530.53;;;17.31
6498;BMP280;3282;48.358;10.958;2022-07-03T01:49:06;96527.44;;;17.29
6498;BMP280;3282;48.358;10.958;2022-07-03T01:51:35;96528.97;;;17.30
6498;BMP280;3282;48.358;10.958;2022-07-03T01:54:04;96503.22;;;17.15
6498;BMP280;3282;48.358;10.958;2022-07-03T01:56:32;96521.25;;;17.29
6498;BMP280;3282;48.358;10.958;2022-07-03T01:58:59;96515.50;;;17.26
6498;BMP280;3282;48.358;10.958;2022-07-03T02:09:35;96517.91;;;17.10
6498;BMP280;3282;48.358;10.958;2022-07-03T02:12:04;96517.94;;;17.06
6498;BMP280;3282;48.358;10.958;2022-07-03T02:14:36;96518.34;;;17.05
6498;BMP280;3282;48.358;10.958;2022-07-03T02:17:24;96519.91;;;17.02
6498;BMP280;3282;48.358;10.958;2022-07-03T02:19:59;96517.22;;;16.98
6498;BMP280;3282;48.358;10.958;2022-07-03T02:22:38;96405.38;;;16.17
6498;BMP280;3282;48.358;10.958;2022-07-03T02:25:07;96518.78;;;16.92
6498;BMP280;3282;48.358;10.958;2022-07-03T02:28:04;96494.19;;;16.72
6498;BMP280;3282;48.358;10.958;2022-07-03T02:30:34;96522.66;;;16.91
6498;BMP280;3282;48.358;10.958;2022-07-03T02:33:02;96523.09;;;16.82
6498;BMP280;3282;48.358;10.958;2022-07-03T02:35:33;96520.41;;;16.75
6498;BMP280;3282;48.358;10.958;2022-07-03T02:38:17;96527.03;;;16.67
6498;BMP280;3282;48.358;10.958;2022-07-03T02:40:57;96527.06;;;16.63
6498;BMP280;3282;48.358;10.958;2022-07-03T02:43:46;96525.53;;;16.58
6498;BMP280;3282;48.358;10.958;2022-07-03T02:46:38;96517.81;;;16.53
6498;BMP280;3282;48.358;10.958;2022-07-03T02:51:54;96520.97;;;16.41
6498;BMP280;3282;48.358;10.958;2022-07-03T02:54:24;96531.03;;;16.33
6498;BMP280;3282;48.358;10.958;2022-07-03T02:57:06;96536.81;;;16.28
6498;BMP280;3282;48.358;10.958;2022-07-03T03:05:02;96532.22;;;16.21
6498;BMP280;3282;48.358;10.958;2022-07-03T03:07:35;96541.47;;;16.20
6498;BMP280;3282;48.358;10.958;2022-07-03T03:10:02;96522.19;;;16.14
6498;BMP280;3282;48.358;10.958;2022-07-03T03:12:36;96543.81;;;16.18
6498;BMP280;3282;48.358;10.958;2022-07-03T03:15:04;96534.91;;;16.14
6498;BMP280;3282;48.358;10.958;2022-07-03T03:17:39;96539.94;;;16.15
6498;BMP280;3282;48.358;10.958;2022-07-03T03:20:08;96522.22;;;16.03
6498;BMP280;3282;48.358;10.958;2022-07-03T03:25:37;96556.50;;;16.14
6498;BMP280;3282;48.358;10.958;2022-07-03T03:28:04;96549.59;;;16.13
6498;BMP280;3282;48.358;10.958;2022-07-03T03:30:31;96555.38;;;16.11
6498;BMP280;3282;48.358;10.958;2022-07-03T03:32:58;96538.41;;;16.03
6498;BMP280;3282;48.358;10.958;2022-07-03T03:35:25;96558.84;;;16.08
6498;BMP280;3282;48.358;10.958;2022-07-03T03:37:51;96556.16;;;16.04
6498;BMP280;3282;48.358;10.958;2022-07-03T03:40:18;96555.00;;;16.05
6498;BMP280;3282;48.358;10.958;2022-07-03T03:42:45;96548.44;;;16.03
6498;BMP280;3282;48.358;10.958;2022-07-03T03:45:12;96556.94;;;16.05
6498;BMP280;3282;48.358;10.958;2022-07-03T03:47:39;96561.19;;;16.02
6498;BMP280;3282;48.358;10.958;2022-07-03T03:50:05;96565.00;;;16.08
6498;BMP280;3282;48.358;10.958;2022-07-03T03:52:32;96542.66;;;15.97
6498;BMP280;3282;48.358;10.958;2022-07-03T03:54:59;96563.50;;;16.07
6498;BMP280;3282;48.358;10.958;2022-07-03T03:57:26;96537.25;;;15.97
6498;BMP280;3282;48.358;10.958;2022-07-03T03:59:54;96558.47;;;16.13
6498;BMP280;3282;48.358;10.958;2022-07-03T04:02:21;96565.78;;;16.24
6498;BMP280;3282;48.358;10.958;2022-07-03T04:04:48;96564.97;;;16.27
6498;BMP280;3282;48.358;10.958;2022-07-03T04:07:15;96567.28;;;16.28
6498;BMP280;3282;48.358;10.958;2022-07-03T04:09:41;96566.53;;;16.24
6498;BMP280;3282;48.358;10.958;2022-07-03T04:12:09;96571.16;;;16.27
6498;BMP280;3282;48.358;10.958;2022-07-03T04:14:36;96571.91;;;16.28
6498;BMP280;3282;48.358;10.958;2022-07-03T04:17:03;96569.19;;;16.31
6498;BMP280;3282;48.358;10.958;2022-07-03T04:19:30;96571.16;;;16.31
6498;BMP280;3282;48.358;10.958;2022-07-03T04:21:57;96568.06;;;16.36
6498;BMP280;3282;48.358;10.958;2022-07-03T04:24:24;96560.72;;;16.37
6498;BMP280;3282;48.358;10.958;2022-07-03T04:26:51;96566.44;;;16.53
6498;BMP280;3282;48.358;10.958;2022-07-03T04:29:17;96563.34;;;16.62
6498;BMP280;3282;48.358;10.958;2022-07-03T04:31:44;96565.97;;;16.80
6498;BMP280;3282;48.358;10.958;2022-07-03T04:34:10;96563.94;;;16.99
6498;BMP280;3282;48.358;10.958;2022-07-03T04:36:38;96547.25;;;17.11
6498;BMP280;3282;48.358;10.958;2022-07-03T04:39:05;96569.72;;;17.58
6498;BMP280;3282;48.358;10.958;2022-07-03T04:41:32;96574.41;;;17.96
6498;BMP280;3282;48.358;10.958;2022-07-03T04:43:58;96575.91;;;18.42
6498;BMP280;3282;48.358;10.958;2022-07-03T04:46:25;96570.00;;;18.82
6498;BMP280;3282;48.358;10.958;2022-07-03T04:48:52;96544.81;;;19.09
6498;BMP280;3282;48.358;10.958;2022-07-03T04:51:19;96564.84;;;19.67
6498;BMP280;3282;48.358;10.958;2022-07-03T04:53:46;96567.59;;;20.08
6498;BMP280;3282;48.358;10.958;2022-07-03T04:56:12;96574.38;;;20.40
6498;BMP280;3282;48.358;10.958;2022-07-03T04:58:39;96574.72;;;20.79
6498;BMP280;3282;48.358;10.958;2022-07-03T05:01:06;96578.22;;;21.13
6498;BMP280;3282;48.358;10.958;2022-07-03T05:03:32;96571.34;;;21.41
6498;BMP280;3282;48.358;10.958;2022-07-03T05:05:59;96581.06;;;21.88
6498;BMP280;3282;48.358;10.958;2022-07-03T05:08:26;96583.91;;;22.40
6498;BMP280;3282;48.358;10.958;2022-07-03T05:10:52;96571.53;;;22.65
6498;BMP280;3282;48.358;10.958;2022-07-03T05:13:19;96581.31;;;23.15
6498;BMP280;3282;48.358;10.958;2022-07-03T05:15:46;96584.19;;;23.46
6498;BMP280;3282;48.358;10.958;2022-07-03T05:18:12;96583.28;;;23.85
6498;BMP280;3282;48.358;10.958;2022-07-03T05:20:46;96594.13;;;24.20
6498;BMP280;3282;48.358;10.958;2022-07-03T05:23:13;96590.88;;;24.34
6498;BMP280;3282;48.358;10.958;2022-07-03T05:25:39;96590.50;;;24.55
6498;BMP280;3282;48.358;10.958;2022-07-03T05:28:06;96596.19;;;24.70
6498;BMP280;3282;48.358;10.958;2022-07-03T05:30:33;96596.41;;;24.85
6498;BMP280;3282;48.358;10.958;2022-07-03T05:33:00;96600.75;;;25.14
6498;BMP280;3282;48.358;10.958;2022-07-03T05:35:26;96599.25;;;25.50
6498;BMP280;3282;48.358;10.958;2022-07-03T05:37:53;96601.69;;;25.67
6498;BMP280;3282;48.358;10.958;2022-07-03T05:40:20;96605.44;;;25.97
6498;BMP280;3282;48.358;10.958;2022-07-03T05:42:46;96593.97;;;26.27
6498;BMP280;3282;48.358;10.958;2022-07-03T05:45:13;96592.47;;;26.60
6498;BMP280;3282;48.358;10.958;2022-07-03T05:47:39;96596.22;;;26.96
6498;BMP280;3282;48.358;10.958;2022-07-03T05:50:06;96593.81;;;27.38
6498;BMP280;3282;48.358;10.958;2022-07-03T05:52:33;96599.94;;;27.87
6498;BMP280;3282;48.358;10.958;2022-07-03T05:55:00;96600.00;;;28.23
6498;BMP280;3282;48.358;10.958;2022-07-03T05:57:26;96597.50;;;28.40
6498;BMP280;3282;48.358;10.958;2022-07-03T05:59:58;96599.22;;;28.52
6498;BMP280;3282;48.358;10.958;2022-07-03T06:02:25;96591.31;;;28.81
6498;BMP280;3282;48.358;10.958;2022-07-03T06:04:52;96601.50;;;28.95
6498;BMP280;3282;48.358;10.958;2022-07-03T06:07:18;96567.75;;;29.00
6498;BMP280;3282;48.358;10.958;2022-07-03T06:09:45;96604.97;;;29.58
6498;BMP280;3282;48.358;10.958;2022-07-03T06:12:12;96609.59;;;29.72
6498;BMP280;3282;48.358;10.958;2022-07-03T06:14:38;96604.72;;;29.88
6498;BMP280;3282;48.358;10.958;2022-07-03T06:17:05;96601.28;;;29.99
6498;BMP280;3282;48.358;10.958;2022-07-03T06:19:32;96596.41;;;30.14
6498;BMP280;3282;48.358;10.958;2022-07-03T06:21:59;96599.75;;;30.30
6498;BMP280;3282;48.358;10.958;2022-07-03T06:24:25;96588.34;;;30.11
6498;BMP280;3282;48.358;10.958;2022-07-03T06:26:52;96599.88;;;30.09
6498;BMP280;3282;48.358;10.958;2022-07-03T06:29:18;96598.78;;;30.01
6498;BMP280;3282;48.358;10.958;2022-07-03T06:31:45;96597.53;;;29.96
6498;BMP280;3282;48.358;10.958;2022-07-03T06:34:12;96605.41;;;30.09
6498;BMP280;3282;48.358;10.958;2022-07-03T06:36:38;96579.41;;;30.22
6498;BMP280;3282;48.358;10.958;2022-07-03T06:39:05;96603.16;;;30.51
6498;BMP280;3282;48.358;10.958;2022-07-03T06:41:31;96600.66;;;30.59
6498;BMP280;3282;48.358;10.958;2022-07-03T06:43:58;96600.66;;;30.59
6498;BMP280;3282;48.358;10.958;2022-07-03T06:46:25;96603.88;;;30.52
6498;BMP280;3282;48.358;10.958;2022-07-03T06:48:52;96593.06;;;30.42
6498;BMP280;3282;48.358;10.958;2022-07-03T06:51:18;96599.66;;;30.56
6498;BMP280;3282;48.358;10.958;2022-07-03T06:53:45;96598.25;;;30.78
6498;BMP280;3282;48.358;10.958;2022-07-03T06:56:11;96602.56;;;30.91
6498;BMP280;3282;48.358;10.958;2022-07-03T06:58:38;96602.06;;;30.86
6498;BMP280;3282;48.358;10.958;2022-07-03T07:01:05;96599.69;;;31.40
6498;BMP280;3282;48.358;10.958;2022-07-03T07:03:31;96603.19;;;32.32
6498;BMP280;3282;48.358;10.958;2022-07-03T07:05:58;96597.59;;;33.44
6498;BMP280;3282;48.358;10.958;2022-07-03T07:08:25;96588.19;;;34.08
6498;BMP280;3282;48.358;10.958;2022-07-03T07:10:51;96596.84;;;34.68
6498;BMP280;3282;48.358;10.958;2022-07-03T07:13:18;96591.13;;;34.98
6498;BMP280;3282;48.358;10.958;2022-07-03T07:15:45;96596.84;;;35.39
6498;BMP280;3282;48.358;10.958;2022-07-03T07:18:11;96601.56;;;35.90
6498;BMP280;3282;48.358;10.958;2022-07-03T07:20:38;96591.94;;;36.18
6498;BMP280;3282;48.358;10.958;2022-07-03T07:23:05;96593.03;;;36.63
6498;BMP280;3282;48.358;10.958;2022-07-03T07:25:31;96594.88;;;36.82
6498;BMP280;3282;48.358;10.958;2022-07-03T07:27:58;96594.38;;;37.04
6498;BMP280;3282;48.358;10.958;2022-07-03T07:30:25;96600.22;;;37.14
6498;BMP280;3282;48.358;10.958;2022-07-03T07:32:51;96595.13;;;37.05
6498;BMP280;3282;48.358;10.958;2022-07-03T07:35:20;96588.56;;;37.16
6498;BMP280;3282;48.358;10.958;2022-07-03T07:37:47;96596.25;;;37.23
6498;BMP280;3282;48.358;10.958;2022-07-03T07:40:14;96592.34;;;37.47
6498;BMP280;3282;48.358;10.958;2022-07-03T07:42:41;96602.63;;;37.10
6498;BMP280;3282;48.358;10.958;2022-07-03T07:45:10;96600.78;;;37.13
6498;BMP280;3282;48.358;10.958;2022-07-03T07:47:37;96592.28;;;37.18
6498;BMP280;3282;48.358;10.958;2022-07-03T07:50:05;96593.94;;;37.21
6498;BMP280;3282;48.358;10.958;2022-07-03T07:52:32;96590.00;;;37.59
6498;BMP280;3282;48.358;10.958;2022-07-03T07:54:59;96589.31;;;37.74
6498;BMP280;3282;48.358;10.958;2022-07-03T07:57:33;96595.59;;;37.88
6498;BMP280;3282;48.358;10.958;2022-07-03T08:00:10;96599.16;;;37.97
6498;BMP280;3282;48.358;10.958;2022-07-03T08:02:58;96578.38;;;37.47
6498;BMP280;3282;48.358;10.958;2022-07-03T08:05:43;96592.38;;;37.84
6498;BMP280;3282;48.358;10.958;2022-07-03T08:08:15;96592.34;;;37.76
6498;BMP280;3282;48.358;10.958;2022-07-03T08:10:46;96592.28;;;37.40
6498;BMP280;3282;48.358;10.958;2022-07-03T08:13:15;96599.41;;;37.48
6498;BMP280;3282;48.358;10.958;2022-07-03T08:15:43;96593.69;;;37.54
6498;BMP280;3282;48.358;10.958;2022-07-03T08:18:10;96593.25;;;37.71
6498;BMP280;3282;48.358;10.958;2022-07-03T08:20:37;96592.38;;;37.55
6498;BMP280;3282;48.358;10.958;2022-07-03T08:23:04;96591.72;;;37.41
6498;BMP280;3282;48.358;10.958;2022-07-03T08:25:31;96589.31;;;37.67
6498;BMP280;3282;48.358;10.958;2022-07-03T08:27:58;96590.00;;;37.59
6498;BMP280;3282;48.358;10.958;2022-07-03T08:30:26;96595.59;;;37.59
6498;BMP280;3282;48.358;10.958;2022-07-03T08:32:54;96593.53;;;37.39
6498;BMP280;3282;48.358;10.958;2022-07-03T08:35:22;96595.00;;;37.32
6498;BMP280;3282;48.358;10.958;2022-07-03T08:37:49;96594.72;;;37.43
6498;BMP280;3282;48.358;10.958;2022-07-03T08:40:17;96590.56;;;37.36
6498;BMP280;3282;48.358;10.958;2022-07-03T08:42:52;96594.81;;;36.74
6498;BMP280;3282;48.358;10.958;2022-07-03T08:45:20;96586.03;;;36.70
6498;BMP280;3282;48.358;10.958;2022-07-03T08:47:48;96588.47;;;36.73
6498;BMP280;3282;48.358;10.958;2022-07-03T08:50:17;96596.00;;;37.00
6498;BMP280;3282;48.358;10.958;2022-07-03T08:52:45;96588.19;;;37.19
6498;BMP280;3282;48.358;10.958;2022-07-03T08:55:13;96588.13;;;37.12
6498;BMP280;3282;48.358;10.958;2022-07-03T08:57:42;96583.75;;;37.24
6498;BMP280;3282;48.358;10.958;2022-07-03T09:00:11;96589.53;;;37.26
6498;BMP280;3282;48.358;10.958;2022-07-03T09:02:40;96591.44;;;37.53
6498;BMP280;3282;48.358;10.958;2022-07-03T09:05:14;96581.41;;;37.28
6498;BMP280;3282;48.358;10.958;2022-07-03T09:07:43;96584.44;;;37.38
6498;BMP280;3282;48.358;10.958;2022-07-03T09:10:12;96591.53;;;37.39
6498;BMP280;3282;48.358;10.958;2022-07-03T09:12:39;96571.16;;;37.10
6498;BMP280;3282;48.358;10.958;2022-07-03T09:15:07;96572.78;;;37.26
6498;BMP280;3282;48.358;10.958;2022-07-03T09:17:35;96566.72;;;37.06
6498;BMP280;3282;48.358;10.958;2022-07-03T09:20:04;96586.53;;;37.45
6498;BMP280;3282;48.358;10.958;2022-07-03T09:22:34;96584.69;;;37.48
6498;BMP280;3282;48.358;10.958;2022-07-03T09:25:12;96578.81;;;36.74
6498;BMP280;3282;48.358;10.958;2022-07-03T09:27:52;96581.66;;;36.61
6498;BMP280;3282;48.358;10.958;2022-07-03T09:30:19;96582.03;;;36.79
6498;BMP280;3282;48.358;10.958;2022-07-03T09:32:47;96572.91;;;36.78
6498;BMP280;3282;48.358;10.958;2022-07-03T09:35:26;96575.63;;;36.70
6498;BMP280;3282;48.358;10.958;2022-07-03T09:37:58;96582.03;;;36.79
6498;BMP280;3282;48.358;10.958;2022-07-03T09:40:46;96578.41;;;36.70
6498;BMP280;3282;48.358;10.958;2022-07-03T09:43:13;96584.91;;;36.86
6498;BMP280;3282;48.358;10.958;2022-07-03T09:45:56;96570.16;;;36.99
6498;BMP280;3282;48.358;10.958;2022-07-03T09:48:37;96574.91;;;36.91
6498;BMP280;3282;48.358;10.958;2022-07-03T09:51:22;96570.56;;;37.03
6498;BMP280;3282;48.358;10.958;2022-07-03T09:53:57;96570.28;;;36.72
6498;BMP280;3282;48.358;10.958;2022-07-03T09:56:25;96575.19;;;36.80
6498;BMP280;3282;48.358;10.958;2022-07-03T09:59:00;96571.28;;;36.61
6498;BMP280;3282;48.358;10.958;2022-07-03T10:01:27;96573.88;;;36.46
6498;BMP280;3282;48.358;10.958;2022-07-03T10:03:54;96574.56;;;36.25
6498;BMP280;3282;48.358;10.958;2022-07-03T10:06:21;96572.94;;;36.16
6498;BMP280;3282;48.358;10.958;2022-07-03T10:08:48;96563.22;;;35.96
6498;BMP280;3282;48.358;10.958;2022-07-03T10:11:17;96566.53;;;35.95
6498;BMP280;3282;48.358;10.958;2022-07-03T10:17:58;96567.84;;;35.48
6498;BMP280;3282;48.358;10.958;2022-07-03T10:22:52;96568.75;;;35.56
6498;BMP280;3282;48.358;10.958;2022-07-03T10:25:19;96560.53;;;35.77
6498;BMP280;3282;48.358;10.958;2022-07-03T10:27:46;96560.75;;;35.79
6498;BMP280;3282;48.358;10.958;2022-07-03T10:30:15;96547.25;;;35.24
6498;BMP280;3282;48.358;10.958;2022-07-03T10:32:44;96552.41;;;35.33
6498;BMP280;3282;48.358;10.958;2022-07-03T10:35:13;96533.94;;;35.36
6498;BMP280;3282;48.358;10.958;2022-07-03T10:43:33;96542.97;;;35.96
6498;BMP280;3282;48.358;10.958;2022-07-03T10:46:21;96556.22;;;35.63
6498;BMP280;3282;48.358;10.958;2022-07-03T10:49:05;96547.28;;;35.37
6498;BMP280;3282;48.358;10.958;2022-07-03T10:52:02;96540.03;;;35.48
6498;BMP280;3282;48.358;10.958;2022-07-03T10:54:34;96538.44;;;35.66
6498;BMP280;3282;48.358;10.958;2022-07-03T10:57:07;96541.13;;;35.71
6498;BMP280;3282;48.358;10.958;2022-07-03T11:07:26;96536.94;;;35.51
6498;BMP280;3282;48.358;10.958;2022-07-03T11:39:02;96504.19;;;34.46
6498;BMP280;3282;48.358;10.958;2022-07-03T11:44:04;96504.25;;;34.40
6498;BMP280;3282;48.358;10.958;2022-07-03T11:46:33;96503.56;;;34.53
6498;BMP280;3282;48.358;10.958;2022-07-03T11:51:32;96497.75;;;34.90
6498;BMP280;3282;48.358;10.958;2022-07-03T11:53:59;96493.94;;;34.93
6498;BMP280;3282;48.358;10.958;2022-07-03T11:56:26;96480.50;;;34.78
6498;BMP280;3282;48.358;10.958;2022-07-03T11:58:56;96479.78;;;34.58
6498;BMP280;3282;48.358;10.958;2022-07-03T12:04:02;96490.53;;;34.67
6498;BMP280;3282;48.358;10.958;2022-07-03T12:09:42;96488.91;;;34.34
6498;BMP280;3282;48.358;10.958;2022-07-03T12:12:10;96487.63;;;34.15
6498;BMP280;3282;48.358;10.958;2022-07-03T12:14:42;96488.84;;;34.20
6498;BMP280;3282;48.358;10.958;2022-07-03T12:17:15;96486.75;;;34.26
6498;BMP280;3282;48.358;10.958;2022-07-03T12:19:56;96499.84;;;34.51
6498;BMP280;3282;48.358;10.958;2022-07-03T12:22:26;96491.69;;;34.53
6498;BMP280;3282;48.358;10.958;2022-07-03T12:24:57;96482.63;;;34.52
6498;BMP280;3282;48.358;10.958;2022-07-03T12:27:24;96489.16;;;34.36
6498;BMP280;3282;48.358;10.958;2022-07-03T12:29:52;96472.56;;;34.30
6498;BMP280;3282;48.358;10.958;2022-07-03T12:32:18;96485.50;;;34.47
6498;BMP280;3282;48.358;10.958;2022-07-03T12:34:46;96484.25;;;34.42
6498;BMP280;3282;48.358;10.958;2022-07-03T12:37:13;96481.72;;;34.44
6498;BMP280;3282;48.358;10.958;2022-07-03T12:39:48;96472.84;;;34.46
6498;BMP280;3282;48.358;10.958;2022-07-03T12:42:20;96480.38;;;34.51
6498;BMP280;3282;48.358;10.958;2022-07-03T12:47:24;96465.25;;;34.65
6498;BMP280;3282;48.358;10.958;2022-07-03T12:49:58;96473.00;;;34.72
6498;BMP280;3282;48.358;10.958;2022-07-03T12:52:29;96459.53;;;34.77
6498;BMP280;3282;48.358;10.958;2022-07-03T12:54:56;96455.94;;;34.82
6498;BMP280;3282;48.358;10.958;2022-07-03T12:57:24;96453.47;;;34.92
6498;BMP280;3282;48.358;10.958;2022-07-03T13:00:11;96446.97;;;34.89
6498;BMP280;3282;48.358;10.958;2022-07-03T13:02:40;96458.72;;;34.82
6498;BMP280;3282;48.358;10.958;2022-07-03T13:05:27;96438.34;;;34.41
6498;BMP280;3282;48.358;10.958;2022-07-03T13:07:55;96427.53;;;34.18
6498;BMP280;3282;48.358;10.958;2022-07-03T13:10:24;96448.19;;;34.23
6498;BMP280;3282;48.358;10.958;2022-07-03T13:12:52;96446.69;;;34.22
6498;BMP280;3282;48.358;10.958;2022-07-03T13:15:20;96441.78;;;34.09
6498;BMP280;3282;48.358;10.958;2022-07-03T13:20:26;96441.41;;;33.99
6498;BMP280;3282;48.358;10.958;2022-07-03T13:22:55;96435.84;;;34.18
6498;BMP280;3282;48.358;10.958;2022-07-03T13:25:22;96442.63;;;34.23
6498;BMP280;3282;48.358;10.958;2022-07-03T13:27:49;96438.41;;;34.16
6498;BMP280;3282;48.358;10.958;2022-07-03T13:30:17;96421.72;;;33.97
6498;BMP280;3282;48.358;10.958;2022-07-03T13:32:45;96432.25;;;34.04
6498;BMP280;3282;48.358;10.958;2022-07-03T13:35:12;96437.44;;;34.13
6498;BMP280;3282;48.358;10.958;2022-07-03T13:37:38;96428.88;;;34.11
6498;BMP280;3282;48.358;10.958;2022-07-03T13:40:05;96437.34;;;34.00
6498;BMP280;3282;48.358;10.958;2022-07-03T13:42:32;96422.50;;;33.97
6498;BMP280;3282;48.358;10.958;2022-07-03T13:44:58;96414.69;;;33.96
6498;BMP280;3282;48.358;10.958;2022-07-03T13:47:25;96435.94;;;34.12
6498;BMP280;3282;48.358;10.958;2022-07-03T13:49:52;96421.44;;;34.00
6498;BMP280;3282;48.358;10.958;2022-07-03T13:52:19;96417.94;;;34.00
6498;BMP280;3282;48.358;10.958;2022-07-03T13:54:45;96430.63;;;34.14
6498;BMP280;3282;48.358;10.958;2022-07-03T13:57:12;96425.50;;;34.19
6498;BMP280;3282;48.358;10.958;2022-07-03T13:59:39;96412.00;;;34.09
6498;BMP280;3282;48.358;10.958;2022-07-03T14:02:06;96414.16;;;34.17
6498;BMP280;3282;48.358;10.958;2022-07-03T14:04:33;96422.97;;;34.02
6498;BMP280;3282;48.358;10.958;2022-07-03T14:06:59;96415.94;;;33.95
6498;BMP280;3282;48.358;10.958;2022-07-03T14:09:26;96418.59;;;33.87
6498;BMP280;3282;48.358;10.958;2022-07-03T14:11:53;96413.72;;;33.49
6498;BMP280;3282;48.358;10.958;2022-07-03T14:14:19;96411.69;;;33.50
6498;BMP280;3282;48.358;10.958;2022-07-03T14:16:46;96404.13;;;33.50
6498;BMP280;3282;48.358;10.958;2022-07-03T14:19:17;96397.81;;;33.50
6498;BMP280;3282;48.358;10.958;2022-07-03T14:21:45;96396.94;;;33.61
6498;BMP280;3282;48.358;10.958;2022-07-03T14:24:11;96399.56;;;33.53
6498;BMP280;3282;48.358;10.958;2022-07-03T14:26:38;96364.59;;;33.19
6498;BMP280;3282;48.358;10.958;2022-07-03T14:29:23;96392.91;;;33.37
6498;BMP280;3282;48.358;10.958;2022-07-03T14:32:08;96388.28;;;33.20
6498;BMP280;3282;48.358;10.958;2022-07-03T14:34:53;96402.38;;;33.22
6498;BMP280;3282;48.358;10.958;2022-07-03T14:37:21;96393.31;;;33.22
6498;BMP280;3282;48.358;10.958;2022-07-03T14:39:48;96391.75;;;33.26
6498;BMP280;3282;48.358;10.958;2022-07-03T14:42:16;96391.75;;;33.26
6498;BMP280;3282;48.358;10.958;2022-07-03T14:44:43;96381.63;;;33.35
6498;BMP280;3282;48.358;10.958;2022-07-03T14:47:11;96391.00;;;33.26
6498;BMP280;3282;48.358;10.958;2022-07-03T14:49:38;96393.31;;;33.22
6498;BMP280;3282;48.358;10.958;2022-07-03T14:52:05;96390.47;;;32.97
6498;BMP280;3282;48.358;10.958;2022-07-03T14:54:33;96389.78;;;32.96
6498;BMP280;3282;48.358;10.958;2022-07-03T15:00:11;96383.97;;;32.94
6498;BMP280;3282;48.358;10.958;2022-07-03T15:02:46;96387.84;;;32.85
6498;BMP280;3282;48.358;10.958;2022-07-03T15:05:14;96385.19;;;32.68
6498;BMP280;3282;48.358;10.958;2022-07-03T15:07:42;96391.69;;;32.77
6498;BMP280;3282;48.358;10.958;2022-07-03T15:10:11;96387.38;;;32.81
6498;BMP280;3282;48.358;10.958;2022-07-03T15:12:43;96379.63;;;32.74
6498;BMP280;3282;48.358;10.958;2022-07-03T15:15:14;96388.66;;;32.75
6498;BMP280;3282;48.358;10.958;2022-07-03T15:17:42;96374.53;;;32.78
6498;BMP280;3282;48.358;10.958;2022-07-03T15:20:12;96359.22;;;32.71
6498;BMP280;3282;48.358;10.958;2022-07-03T15:22:41;96373.84;;;32.66
6498;BMP280;3282;48.358;10.958;2022-07-03T15:25:10;96362.53;;;32.64
6498;BMP280;3282;48.358;10.958;2022-07-03T15:27:39;96373.09;;;32.71
6498;BMP280;3282;48.358;10.958;2022-07-03T15:30:10;96376.88;;;32.68
6498;BMP280;3282;48.358;10.958;2022-07-03T15:32:37;96377.97;;;32.60
6498;BMP280;3282;48.358;10.958;2022-07-03T15:35:10;96368.06;;;32.64
6498;BMP280;3282;48.358;10.958;2022-07-03T15:38:17;96369.06;;;32.67
6498;BMP280;3282;48.358;10.958;2022-07-03T15:40:51;96360.88;;;32.50
6498;BMP280;3282;48.358;10.958;2022-07-03T15:46:08;96364.41;;;32.50
6498;BMP280;3282;48.358;10.958;2022-07-03T15:51:25;96359.16;;;32.47
6498;BMP280;3282;48.358;10.958;2022-07-03T15:54:01;96352.88;;;32.46
6498;BMP280;3282;48.358;10.958;2022-07-03T15:56:32;96350.28;;;32.54
6498;BMP280;3282;48.358;10.958;2022-07-03T15:59:03;96349.75;;;32.55
6498;BMP280;3282;48.358;10.958;2022-07-03T16:01:46;96355.38;;;32.44
6498;BMP280;3282;48.358;10.958;2022-07-03T16:07:23;96347.25;;;32.21
6498;BMP280;3282;48.358;10.958;2022-07-03T16:09:51;96349.97;;;32.27
6498;BMP280;3282;48.358;10.958;2022-07-03T16:12:18;96351.69;;;32.30
6498;BMP280;3282;48.358;10.958;2022-07-03T16:14:48;96341.88;;;32.35
6498;BMP280;3282;48.358;10.958;2022-07-03T16:17:20;96346.38;;;32.38
6498;BMP280;3282;48.358;10.958;2022-07-03T16:19:49;96345.34;;;32.41